Accueil
METAR-TAF:

METAR-TAF

Aéroports :

Damas, Syrie

Aéroport international de Damas

latitude: 33-25N, longitude: 036-31E, altitude: 608 m

Observation

Le bulletin a été fait il y a 52 minutes, à 12:00 UTC
Vent 3 kt de sud-ouest
Température 29°C
Humidité 23%
Pression 1018 hPa
Visibilité 10 km ou plus
pas de nuages en-dessous de 1500 mètres et pas de cumulonimbus.

METAR: OSDI 181200Z 22003KT CAVOK 29/06 Q1018

Heure: 15:52 (12:52 UTC)

Prévision

Le bulletin a été fait il y a 2 heures et 52 minutes, à 10:00 UTC
Prévision valable du 18 à 12 UTC au 19 à 18 UTC
Vent 3 kt de direction variable
Visibilité 10 km ou plus
pas de nuages en-dessous de 1500 mètres et pas de cumulonimbus.
Temporairement
du 18 à 12 UTC au 18 à 18 UTC
Vent 10 kt de ouest/sud-ouest
Visibilité 10 km ou plus
Quelques nuages à une hauteur de 3000 ft

TAF: OSDI 181000Z 1812/1918 VRB03KT CAVOK TEMPO 1812/1818 24010KT 9999 FEW030

Observations et prévisions météorologiques de plus de 4000 aéroports (messages METAR et TAF).

Les stations disponibles sont représentées par des disques jaunes et rouges sur la carte.

Passer la souris dessus pour voir le nom de la station.

Cliquer dessus pour voir les observations et prévisions météorologiques.

Pour changer de carte: cliquez sur les boutons verts avec une croix noire pour zoomer, sur le bouton vert avec un tiret pour effectuer un zoom arrière, ou sur les flèches vertes pour les cartes adjacentes.


METAR-TAF: